sensor_id;sensor_type;location;lat;lon;timestamp;pressure;altitude;pressure_sealevel;temperature;humidity
41515;BME280;27247;48.020;16.720;2023-01-25T00:00:25;101610.72;;;2.74;100.00
41515;BME280;27247;48.020;16.720;2023-01-25T00:04:35;101608.16;;;2.72;100.00
41515;BME280;27247;48.020;16.720;2023-01-25T00:08:49;101606.22;;;2.76;100.00
41515;BME280;27247;48.020;16.720;2023-01-25T00:12:59;101604.69;;;2.72;100.00
41515;BME280;27247;48.020;16.720;2023-01-25T00:17:10;101603.06;;;2.69;100.00
41515;BME280;27247;48.020;16.720;2023-01-25T00:21:22;101606.28;;;2.74;100.00
41515;BME280;27247;48.020;16.720;2023-01-25T00:25:33;101604.84;;;2.69;100.00
41515;BME280;27247;48.020;16.720;2023-01-25T00:29:43;101603.06;;;2.69;100.00
41515;BME280;27247;48.020;16.720;2023-01-25T00:34:05;101602.38;;;2.66;99.96
41515;BME280;27247;48.020;16.720;2023-01-25T00:38:37;101599.34;;;2.56;99.97
41515;BME280;27247;48.020;16.720;2023-01-25T00:42:47;101608.50;;;2.66;100.00
41515;BME280;27247;48.020;16.720;2023-01-25T00:46:57;101621.28;;;2.74;99.89
41515;BME280;27247;48.020;16.720;2023-01-25T00:51:08;101613.69;;;2.68;100.00
41515;BME280;27247;48.020;16.720;2023-01-25T00:55:18;101613.59;;;2.69;100.00
41515;BME280;27247;48.020;16.720;2023-01-25T00:59:28;101614.47;;;2.70;100.00
41515;BME280;27247;48.020;16.720;2023-01-25T01:03:39;101615.91;;;2.75;99.90
41515;BME280;27247;48.020;16.720;2023-01-25T01:07:49;101615.00;;;2.76;99.83
41515;BME280;27247;48.020;16.720;2023-01-25T01:12:00;101612.69;;;2.70;99.97
41515;BME280;27247;48.020;16.720;2023-01-25T01:16:11;101603.75;;;2.73;100.00
41515;BME280;27247;48.020;16.720;2023-01-25T01:20:22;101606.53;;;2.70;99.82
41515;BME280;27247;48.020;16.720;2023-01-25T01:24:32;101613.44;;;2.72;100.00
41515;BME280;27247;48.020;16.720;2023-01-25T01:28:42;101621.44;;;2.71;100.00
41515;BME280;27247;48.020;16.720;2023-01-25T01:32:53;101628.75;;;2.66;100.00
41515;BME280;27247;48.020;16.720;2023-01-25T01:37:03;101625.47;;;2.78;100.00
41515;BME280;27247;48.020;16.720;2023-01-25T01:41:14;101624.69;;;2.76;100.00
41515;BME280;27247;48.020;16.720;2023-01-25T01:50:08;101604.22;;;2.64;100.00
41515;BME280;27247;48.020;16.720;2023-01-25T01:54:28;101613.94;;;2.63;100.00
41515;BME280;27247;48.020;16.720;2023-01-25T01:58:41;101613.09;;;2.63;100.00
41515;BME280;27247;48.020;16.720;2023-01-25T02:02:53;101614.34;;;2.55;100.00
41515;BME280;27247;48.020;16.720;2023-01-25T02:07:14;101612.22;;;2.62;100.00
41515;BME280;27247;48.020;16.720;2023-01-25T02:11:26;101599.88;;;2.63;100.00
41515;BME280;27247;48.020;16.720;2023-01-25T02:15:40;101595.78;;;2.57;100.00
41515;BME280;27247;48.020;16.720;2023-01-25T02:24:30;101601.59;;;2.64;100.00
41515;BME280;27247;48.020;16.720;2023-01-25T02:28:57;101601.34;;;2.68;100.00
41515;BME280;27247;48.020;16.720;2023-01-25T02:33:08;101594.19;;;2.70;99.81
41515;BME280;27247;48.020;16.720;2023-01-25T02:37:19;101597.25;;;2.63;99.98
41515;BME280;27247;48.020;16.720;2023-01-25T02:41:35;101579.19;;;2.55;100.00
41515;BME280;27247;48.020;16.720;2023-01-25T02:45:48;101586.09;;;2.58;100.00
41515;BME280;27247;48.020;16.720;2023-01-25T02:50:01;101579.72;;;2.62;100.00
41515;BME280;27247;48.020;16.720;2023-01-25T02:54:13;101576.53;;;2.55;100.00
41515;BME280;27247;48.020;16.720;2023-01-25T02:58:24;101568.22;;;2.63;100.00
41515;BME280;27247;48.020;16.720;2023-01-25T03:02:34;101561.81;;;2.51;100.00
41515;BME280;27247;48.020;16.720;2023-01-25T03:06:44;101560.88;;;2.52;100.00
41515;BME280;27247;48.020;16.720;2023-01-25T03:10:56;101541.22;;;2.58;99.88
41515;BME280;27247;48.020;16.720;2023-01-25T03:15:07;101540.47;;;2.55;99.39
41515;BME280;27247;48.020;16.720;2023-01-25T03:19:18;101544.47;;;2.63;99.71
41515;BME280;27247;48.020;16.720;2023-01-25T03:23:28;101544.72;;;2.58;99.30
41515;BME280;27247;48.020;16.720;2023-01-25T03:27:39;101543.78;;;2.59;99.80
41515;BME280;27247;48.020;16.720;2023-01-25T03:31:49;101537.22;;;2.50;99.88
41515;BME280;27247;48.020;16.720;2023-01-25T03:36:00;101538.84;;;2.53;99.97
41515;BME280;27247;48.020;16.720;2023-01-25T03:40:11;101540.38;;;2.57;100.00
41515;BME280;27247;48.020;16.720;2023-01-25T03:44:21;101535.59;;;2.48;100.00
41515;BME280;27247;48.020;16.720;2023-01-25T03:48:31;101533.56;;;2.53;100.00
41515;BME280;27247;48.020;16.720;2023-01-25T03:52:42;101534.50;;;2.52;100.00
41515;BME280;27247;48.020;16.720;2023-01-25T03:56:54;101533.28;;;2.42;100.00
41515;BME280;27247;48.020;16.720;2023-01-25T04:01:06;101524.34;;;2.44;100.00
41515;BME280;27247;48.020;16.720;2023-01-25T04:05:17;101525.59;;;2.37;100.00
41515;BME280;27247;48.020;16.720;2023-01-25T04:09:27;101519.00;;;2.46;100.00
41515;BME280;27247;48.020;16.720;2023-01-25T04:13:38;101505.88;;;2.44;100.00
41515;BME280;27247;48.020;16.720;2023-01-25T04:17:48;101518.13;;;2.45;100.00
41515;BME280;27247;48.020;16.720;2023-01-25T04:21:59;101518.31;;;2.42;100.00
41515;BME280;27247;48.020;16.720;2023-01-25T04:26:10;101527.91;;;2.43;100.00
41515;BME280;27247;48.020;16.720;2023-01-25T04:30:21;101522.81;;;2.40;100.00
41515;BME280;27247;48.020;16.720;2023-01-25T04:34:31;101511.50;;;2.38;100.00
41515;BME280;27247;48.020;16.720;2023-01-25T04:38:42;101509.63;;;2.40;100.00
41515;BME280;27247;48.020;16.720;2023-01-25T04:42:52;101512.00;;;2.45;100.00
41515;BME280;27247;48.020;16.720;2023-01-25T04:47:03;101516.59;;;2.41;100.00
41515;BME280;27247;48.020;16.720;2023-01-25T04:51:13;101523.66;;;2.41;100.00
41515;BME280;27247;48.020;16.720;2023-01-25T04:55:24;101515.22;;;2.34;99.92
41515;BME280;27247;48.020;16.720;2023-01-25T04:59:34;101515.06;;;2.37;100.00
41515;BME280;27247;48.020;16.720;2023-01-25T05:03:44;101508.94;;;2.37;100.00
41515;BME280;27247;48.020;16.720;2023-01-25T05:07:55;101519.72;;;2.32;99.85
41515;BME280;27247;48.020;16.720;2023-01-25T05:12:05;101508.56;;;2.27;100.00
41515;BME280;27247;48.020;16.720;2023-01-25T05:16:20;101511.13;;;2.29;100.00
41515;BME280;27247;48.020;16.720;2023-01-25T05:20:31;101504.84;;;2.31;100.00
41515;BME280;27247;48.020;16.720;2023-01-25T05:24:41;101502.81;;;2.36;99.78
41515;BME280;27247;48.020;16.720;2023-01-25T05:28:54;101501.03;;;2.37;100.00
41515;BME280;27247;48.020;16.720;2023-01-25T05:33:04;101509.88;;;2.36;99.45
41515;BME280;27247;48.020;16.720;2023-01-25T05:37:16;101521.28;;;2.36;99.74
41515;BME280;27247;48.020;16.720;2023-01-25T05:41:27;101523.63;;;2.25;100.00
41515;BME280;27247;48.020;16.720;2023-01-25T05:45:39;101528.22;;;2.21;100.00
41515;BME280;27247;48.020;16.720;2023-01-25T05:49:49;101532.72;;;2.19;100.00
41515;BME280;27247;48.020;16.720;2023-01-25T05:54:01;101525.03;;;2.15;100.00
41515;BME280;27247;48.020;16.720;2023-01-25T05:58:11;101527.84;;;2.12;100.00
41515;BME280;27247;48.020;16.720;2023-01-25T06:02:22;101541.03;;;2.12;100.00
41515;BME280;27247;48.020;16.720;2023-01-25T06:06:32;101542.06;;;2.08;100.00
41515;BME280;27247;48.020;16.720;2023-01-25T06:10:42;101536.75;;;2.09;100.00
41515;BME280;27247;48.020;16.720;2023-01-25T06:14:53;101538.06;;;2.01;100.00
41515;BME280;27247;48.020;16.720;2023-01-25T06:19:04;101535.97;;;2.07;100.00
41515;BME280;27247;48.020;16.720;2023-01-25T06:23:16;101532.69;;;2.02;100.00
41515;BME280;27247;48.020;16.720;2023-01-25T06:27:27;101540.44;;;2.05;100.00
41515;BME280;27247;48.020;16.720;2023-01-25T06:31:37;101543.16;;;2.04;100.00
41515;BME280;27247;48.020;16.720;2023-01-25T06:35:48;101531.41;;;1.93;100.00
41515;BME280;27247;48.020;16.720;2023-01-25T06:39:59;101537.59;;;1.92;100.00
41515;BME280;27247;48.020;16.720;2023-01-25T06:44:09;101535.28;;;1.86;100.00
41515;BME280;27247;48.020;16.720;2023-01-25T06:48:20;101536.38;;;1.82;100.00
41515;BME280;27247;48.020;16.720;2023-01-25T06:52:30;101536.22;;;1.85;100.00
41515;BME280;27247;48.020;16.720;2023-01-25T06:56:41;101532.78;;;1.83;100.00
41515;BME280;27247;48.020;16.720;2023-01-25T07:00:51;101527.28;;;1.88;100.00
41515;BME280;27247;48.020;16.720;2023-01-25T07:05:02;101521.84;;;1.91;100.00
41515;BME280;27247;48.020;16.720;2023-01-25T07:09:14;101522.72;;;1.91;100.00
41515;BME280;27247;48.020;16.720;2023-01-25T07:13:26;101518.28;;;1.92;100.00
41515;BME280;27247;48.020;16.720;2023-01-25T07:17:36;101513.03;;;1.92;100.00
41515;BME280;27247;48.020;16.720;2023-01-25T07:21:47;101523.41;;;1.95;100.00
41515;BME280;27247;48.020;16.720;2023-01-25T07:25:58;101525.19;;;1.95;100.00
41515;BME280;27247;48.020;16.720;2023-01-25T07:30:09;101516.28;;;1.97;100.00
41515;BME280;27247;48.020;16.720;2023-01-25T07:34:19;101511.84;;;1.98;100.00
41515;BME280;27247;48.020;16.720;2023-01-25T07:38:30;101516.03;;;2.02;100.00
41515;BME280;27247;48.020;16.720;2023-01-25T07:42:40;101526.34;;;2.06;100.00
41515;BME280;27247;48.020;16.720;2023-01-25T07:46:52;101523.63;;;2.08;100.00
41515;BME280;27247;48.020;16.720;2023-01-25T07:51:04;101521.00;;;2.08;100.00
41515;BME280;27247;48.020;16.720;2023-01-25T07:55:21;101523.50;;;2.11;100.00
41515;BME280;27247;48.020;16.720;2023-01-25T07:59:31;101518.66;;;2.19;100.00
41515;BME280;27247;48.020;16.720;2023-01-25T08:03:42;101527.44;;;2.19;100.00
41515;BME280;27247;48.020;16.720;2023-01-25T08:07:53;101527.50;;;2.18;100.00
41515;BME280;27247;48.020;16.720;2023-01-25T08:12:03;101515.44;;;2.14;100.00
41515;BME280;27247;48.020;16.720;2023-01-25T08:16:23;101516.44;;;2.11;100.00
41515;BME280;27247;48.020;16.720;2023-01-25T08:20:34;101513.81;;;2.11;100.00
41515;BME280;27247;48.020;16.720;2023-01-25T08:24:44;101510.53;;;2.06;100.00
41515;BME280;27247;48.020;16.720;2023-01-25T08:28:55;101500.38;;;2.16;100.00
41515;BME280;27247;48.020;16.720;2023-01-25T08:33:05;101502.16;;;2.15;100.00
41515;BME280;27247;48.020;16.720;2023-01-25T08:37:16;101504.03;;;2.13;100.00
41515;BME280;27247;48.020;16.720;2023-01-25T08:41:28;101496.13;;;2.13;99.84
41515;BME280;27247;48.020;16.720;2023-01-25T08:45:39;101493.84;;;2.23;99.67
41515;BME280;27247;48.020;16.720;2023-01-25T08:49:49;101492.13;;;2.22;98.95
41515;BME280;27247;48.020;16.720;2023-01-25T08:54:04;101485.78;;;2.26;99.43
41515;BME280;27247;48.020;16.720;2023-01-25T08:58:16;101493.84;;;2.23;98.64
41515;BME280;27247;48.020;16.720;2023-01-25T09:02:28;101498.59;;;2.16;98.97
41515;BME280;27247;48.020;16.720;2023-01-25T09:06:39;101491.03;;;2.26;99.41
41515;BME280;27247;48.020;16.720;2023-01-25T09:10:49;101488.56;;;2.23;99.29
41515;BME280;27247;48.020;16.720;2023-01-25T09:15:01;101495.09;;;2.16;99.29
41515;BME280;27247;48.020;16.720;2023-01-25T09:19:11;101481.16;;;2.14;99.99
41515;BME280;27247;48.020;16.720;2023-01-25T09:23:22;101490.69;;;2.16;100.00
41515;BME280;27247;48.020;16.720;2023-01-25T09:27:33;101474.53;;;2.22;99.97
41515;BME280;27247;48.020;16.720;2023-01-25T09:31:43;101477.00;;;2.26;99.94
41515;BME280;27247;48.020;16.720;2023-01-25T09:35:54;101468.31;;;2.23;99.13
41515;BME280;27247;48.020;16.720;2023-01-25T09:40:05;101467.03;;;2.15;99.50
41515;BME280;27247;48.020;16.720;2023-01-25T09:48:53;101462.84;;;2.11;99.66
41515;BME280;27247;48.020;16.720;2023-01-25T09:53:25;101453.06;;;2.13;100.00
41515;BME280;27247;48.020;16.720;2023-01-25T09:57:41;101457.09;;;2.20;100.00
41515;BME280;27247;48.020;16.720;2023-01-25T10:06:38;101451.06;;;2.34;99.59
41515;BME280;27247;48.020;16.720;2023-01-25T10:10:54;101447.84;;;2.44;98.81
41515;BME280;27247;48.020;16.720;2023-01-25T10:15:20;101442.13;;;2.36;98.50
41515;BME280;27247;48.020;16.720;2023-01-25T10:29:20;101402.22;;;2.42;99.33
41515;BME280;27247;48.020;16.720;2023-01-25T10:33:34;101391.75;;;2.41;99.00
41515;BME280;27247;48.020;16.720;2023-01-25T10:37:52;101391.84;;;2.39;98.28
41515;BME280;27247;48.020;16.720;2023-01-25T10:42:08;101385.72;;;2.39;98.33
41515;BME280;27247;48.020;16.720;2023-01-25T10:46:24;101384.53;;;2.44;98.24
41515;BME280;27247;48.020;16.720;2023-01-25T10:59:26;101371.25;;;2.30;99.12
41515;BME280;27247;48.020;16.720;2023-01-25T11:03:42;101366.56;;;2.19;99.13
41515;BME280;27247;48.020;16.720;2023-01-25T11:07:56;101352.38;;;2.22;99.70
41515;BME280;27247;48.020;16.720;2023-01-25T11:16:30;101347.69;;;2.27;99.92
41515;BME280;27247;48.020;16.720;2023-01-25T11:20:41;101347.34;;;2.33;98.86
41515;BME280;27247;48.020;16.720;2023-01-25T11:24:51;101334.94;;;2.35;98.95
41515;BME280;27247;48.020;16.720;2023-01-25T11:33:18;101334.22;;;2.47;99.02
41515;BME280;27247;48.020;16.720;2023-01-25T11:37:51;101314.91;;;2.47;98.31
41515;BME280;27247;48.020;16.720;2023-01-25T11:55:42;101277.22;;;2.45;98.61
41515;BME280;27247;48.020;16.720;2023-01-25T12:18:14;101246.19;;;2.34;98.21
41515;BME280;27247;48.020;16.720;2023-01-25T12:32:10;101200.78;;;2.29;98.76
41515;BME280;27247;48.020;16.720;2023-01-25T12:36:36;101192.28;;;2.24;98.61
41515;BME280;27247;48.020;16.720;2023-01-25T12:41:25;101200.19;;;2.24;98.72
41515;BME280;27247;48.020;16.720;2023-01-25T12:45:30;101195.31;;;2.32;97.99
41515;BME280;27247;48.020;16.720;2023-01-25T12:49:56;101179.09;;;2.24;97.61
41515;BME280;27247;48.020;16.720;2023-01-25T12:54:22;101170.25;;;2.25;98.42
41515;BME280;27247;48.020;16.720;2023-01-25T12:58:48;101170.16;;;2.27;98.12
41515;BME280;27247;48.020;16.720;2023-01-25T13:03:03;101155.00;;;2.30;97.54
41515;BME280;27247;48.020;16.720;2023-01-25T13:07:22;101160.94;;;2.34;97.35
41515;BME280;27247;48.020;16.720;2023-01-25T13:11:38;101149.72;;;2.30;98.21
41515;BME280;27247;48.020;16.720;2023-01-25T13:15:49;101152.34;;;2.30;97.82
41515;BME280;27247;48.020;16.720;2023-01-25T13:19:59;101142.94;;;2.26;97.95
41515;BME280;27247;48.020;16.720;2023-01-25T13:28:40;101136.44;;;2.32;98.26
41515;BME280;27247;48.020;16.720;2023-01-25T13:32:54;101143.50;;;2.31;97.98
41515;BME280;27247;48.020;16.720;2023-01-25T13:37:18;101153.78;;;2.36;98.58
41515;BME280;27247;48.020;16.720;2023-01-25T13:41:29;101136.25;;;2.35;98.57
41515;BME280;27247;48.020;16.720;2023-01-25T13:45:40;101138.91;;;2.35;98.78
41515;BME280;27247;48.020;16.720;2023-01-25T13:54:05;101136.44;;;2.32;99.23
41515;BME280;27247;48.020;16.720;2023-01-25T13:58:27;101127.03;;;2.28;99.37
41515;BME280;27247;48.020;16.720;2023-01-25T14:02:38;101134.63;;;2.18;99.22
41515;BME280;27247;48.020;16.720;2023-01-25T14:06:55;101129.63;;;2.13;98.85
41515;BME280;27247;48.020;16.720;2023-01-25T14:11:06;101130.75;;;2.09;99.16
41515;BME280;27247;48.020;16.720;2023-01-25T14:15:26;101131.59;;;2.10;99.91
41515;BME280;27247;48.020;16.720;2023-01-25T14:19:46;101130.66;;;2.11;100.00
41515;BME280;27247;48.020;16.720;2023-01-25T14:24:08;101129.94;;;2.07;98.55
41515;BME280;27247;48.020;16.720;2023-01-25T14:28:19;101130.03;;;2.06;98.62
41515;BME280;27247;48.020;16.720;2023-01-25T14:32:29;101118.72;;;2.04;98.51
41515;BME280;27247;48.020;16.720;2023-01-25T14:36:40;101122.22;;;2.04;99.41
41515;BME280;27247;48.020;16.720;2023-01-25T14:40:54;101138.03;;;2.04;100.00
41515;BME280;27247;48.020;16.720;2023-01-25T14:45:11;101124.19;;;2.01;99.67
41515;BME280;27247;48.020;16.720;2023-01-25T14:49:23;101126.16;;;1.97;100.00
41515;BME280;27247;48.020;16.720;2023-01-25T14:53:38;101122.09;;;1.91;99.79
41515;BME280;27247;48.020;16.720;2023-01-25T14:57:50;101112.75;;;1.86;99.54
41515;BME280;27247;48.020;16.720;2023-01-25T15:02:17;101111.53;;;1.91;100.00
41515;BME280;27247;48.020;16.720;2023-01-25T15:06:28;101111.63;;;1.90;99.92
41515;BME280;27247;48.020;16.720;2023-01-25T15:10:51;101104.66;;;1.89;99.99
41515;BME280;27247;48.020;16.720;2023-01-25T15:15:17;101097.88;;;1.85;100.00
41515;BME280;27247;48.020;16.720;2023-01-25T15:19:29;101108.69;;;1.80;100.00
41515;BME280;27247;48.020;16.720;2023-01-25T15:23:41;101099.50;;;1.72;100.00
41515;BME280;27247;48.020;16.720;2023-01-25T15:27:52;101102.31;;;1.69;100.00
41515;BME280;27247;48.020;16.720;2023-01-25T15:32:08;101104.03;;;1.70;100.00
41515;BME280;27247;48.020;16.720;2023-01-25T15:36:27;101096.22;;;1.68;100.00
41515;BME280;27247;48.020;16.720;2023-01-25T15:40:38;101096.56;;;1.62;100.00
41515;BME280;27247;48.020;16.720;2023-01-25T15:44:48;101100.03;;;1.63;100.00
41515;BME280;27247;48.020;16.720;2023-01-25T15:48:59;101095.03;;;1.58;100.00
41515;BME280;27247;48.020;16.720;2023-01-25T15:53:17;101093.34;;;1.57;100.00
41515;BME280;27247;48.020;16.720;2023-01-25T15:57:32;101101.59;;;1.51;100.00
41515;BME280;27247;48.020;16.720;2023-01-25T16:01:43;101096.16;;;1.54;100.00
41515;BME280;27247;48.020;16.720;2023-01-25T16:06:06;101090.28;;;1.49;100.00
41515;BME280;27247;48.020;16.720;2023-01-25T16:10:24;101083.31;;;1.48;100.00
41515;BME280;27247;48.020;16.720;2023-01-25T16:14:35;101089.69;;;1.44;100.00
41515;BME280;27247;48.020;16.720;2023-01-25T16:18:46;101094.28;;;1.40;100.00
41515;BME280;27247;48.020;16.720;2023-01-25T16:22:56;101081.22;;;1.39;100.00
41515;BME280;27247;48.020;16.720;2023-01-25T16:27:13;101089.28;;;1.36;100.00
41515;BME280;27247;48.020;16.720;2023-01-25T16:31:25;101079.50;;;1.38;100.00
41515;BME280;27247;48.020;16.720;2023-01-25T16:35:36;101075.19;;;1.37;100.00
41515;BME280;27247;48.020;16.720;2023-01-25T16:39:46;101079.34;;;1.41;100.00
41515;BME280;27247;48.020;16.720;2023-01-25T16:43:56;101072.03;;;1.46;100.00
41515;BME280;27247;48.020;16.720;2023-01-25T16:48:11;101068.63;;;1.44;100.00
41515;BME280;27247;48.020;16.720;2023-01-25T16:52:24;101067.97;;;1.40;100.00
41515;BME280;27247;48.020;16.720;2023-01-25T16:56:36;101069.06;;;1.36;100.00
41515;BME280;27247;48.020;16.720;2023-01-25T17:00:47;101071.78;;;1.35;100.00
41515;BME280;27247;48.020;16.720;2023-01-25T17:04:58;101061.34;;;1.33;100.00
41515;BME280;27247;48.020;16.720;2023-01-25T17:09:11;101053.34;;;1.35;100.00
41515;BME280;27247;48.020;16.720;2023-01-25T17:13:23;101055.81;;;1.38;100.00
41515;BME280;27247;48.020;16.720;2023-01-25T17:17:34;101054.28;;;1.34;100.00
41515;BME280;27247;48.020;16.720;2023-01-25T17:21:45;101048.19;;;1.33;100.00
41515;BME280;27247;48.020;16.720;2023-01-25T17:25:56;101050.91;;;1.32;100.00
41515;BME280;27247;48.020;16.720;2023-01-25T17:30:07;101041.47;;;1.27;100.00
41515;BME280;27247;48.020;16.720;2023-01-25T17:34:18;101032.38;;;1.33;100.00
41515;BME280;27247;48.020;16.720;2023-01-25T17:38:29;101028.91;;;1.33;100.00
41515;BME280;27247;48.020;16.720;2023-01-25T17:42:40;101030.09;;;1.27;100.00
41515;BME280;27247;48.020;16.720;2023-01-25T17:46:51;101022.19;;;1.27;100.00
41515;BME280;27247;48.020;16.720;2023-01-25T17:51:02;101011.00;;;1.23;100.00
41515;BME280;27247;48.020;16.720;2023-01-25T17:55:13;101018.22;;;1.20;100.00
41515;BME280;27247;48.020;16.720;2023-01-25T17:59:24;101013.03;;;1.18;100.00
41515;BME280;27247;48.020;16.720;2023-01-25T18:03:35;101016.00;;;1.28;100.00
41515;BME280;27247;48.020;16.720;2023-01-25T18:07:46;101013.53;;;1.25;100.00
41515;BME280;27247;48.020;16.720;2023-01-25T18:11:57;101001.63;;;1.34;100.00
41515;BME280;27247;48.020;16.720;2023-01-25T18:16:09;100992.97;;;1.32;100.00
41515;BME280;27247;48.020;16.720;2023-01-25T18:20:19;100995.97;;;1.10;100.00
41515;BME280;27247;48.020;16.720;2023-01-25T18:24:33;100995.13;;;1.09;100.00
41515;BME280;27247;48.020;16.720;2023-01-25T18:28:44;100984.66;;;1.23;100.00
41515;BME280;27247;48.020;16.720;2023-01-25T18:32:56;100981.31;;;1.36;100.00
41515;BME280;27247;48.020;16.720;2023-01-25T18:37:09;100977.84;;;1.35;100.00
41515;BME280;27247;48.020;16.720;2023-01-25T18:41:35;100974.53;;;1.32;100.00
41515;BME280;27247;48.020;16.720;2023-01-25T18:45:56;100973.28;;;1.23;100.00
41515;BME280;27247;48.020;16.720;2023-01-25T18:50:09;100964.38;;;1.25;100.00
41515;BME280;27247;48.020;16.720;2023-01-25T18:54:23;100957.81;;;1.33;100.00
41515;BME280;27247;48.020;16.720;2023-01-25T18:58:35;100950.84;;;1.32;100.00
41515;BME280;27247;48.020;16.720;2023-01-25T19:02:46;100951.34;;;1.38;100.00
41515;BME280;27247;48.020;16.720;2023-01-25T19:06:57;100945.31;;;1.36;100.00
41515;BME280;27247;48.020;16.720;2023-01-25T19:11:13;100939.38;;;1.33;100.00
41515;BME280;27247;48.020;16.720;2023-01-25T19:15:24;100926.53;;;1.12;100.00
41515;BME280;27247;48.020;16.720;2023-01-25T19:19:34;100931.63;;;1.15;100.00
41515;BME280;27247;48.020;16.720;2023-01-25T19:23:47;100922.41;;;1.22;100.00
41515;BME280;27247;48.020;16.720;2023-01-25T19:27:58;100910.28;;;1.20;100.00
41515;BME280;27247;48.020;16.720;2023-01-25T19:32:09;100912.25;;;1.01;100.00
41515;BME280;27247;48.020;16.720;2023-01-25T19:36:20;100905.22;;;1.01;100.00
41515;BME280;27247;48.020;16.720;2023-01-25T19:40:31;100905.75;;;1.08;100.00
41515;BME280;27247;48.020;16.720;2023-01-25T19:44:42;100899.44;;;1.10;100.00
41515;BME280;27247;48.020;16.720;2023-01-25T19:48:53;100881.78;;;1.12;100.00
41515;BME280;27247;48.020;16.720;2023-01-25T19:53:05;100884.72;;;1.22;100.00
41515;BME280;27247;48.020;16.720;2023-01-25T19:57:16;100876.16;;;1.18;100.00
41515;BME280;27247;48.020;16.720;2023-01-25T20:01:27;100875.53;;;1.29;100.00
41515;BME280;27247;48.020;16.720;2023-01-25T20:05:38;100874.03;;;1.39;100.00
41515;BME280;27247;48.020;16.720;2023-01-25T20:09:49;100873.94;;;1.41;100.00
41515;BME280;27247;48.020;16.720;2023-01-25T20:14:03;100860.59;;;1.44;100.00
41515;BME280;27247;48.020;16.720;2023-01-25T20:18:15;100857.28;;;1.40;100.00
41515;BME280;27247;48.020;16.720;2023-01-25T20:22:26;100853.44;;;1.32;100.00
41515;BME280;27247;48.020;16.720;2023-01-25T20:26:39;100844.56;;;1.18;100.00
41515;BME280;27247;48.020;16.720;2023-01-25T20:30:53;100837.25;;;1.23;100.00
41515;BME280;27247;48.020;16.720;2023-01-25T20:35:04;100832.44;;;1.16;100.00
41515;BME280;27247;48.020;16.720;2023-01-25T20:39:19;100833.00;;;1.21;100.00
41515;BME280;27247;48.020;16.720;2023-01-25T20:43:31;100828.97;;;1.15;100.00
41515;BME280;27247;48.020;16.720;2023-01-25T20:47:42;100823.69;;;1.15;100.00
41515;BME280;27247;48.020;16.720;2023-01-25T20:51:53;100817.03;;;0.94;100.00
41515;BME280;27247;48.020;16.720;2023-01-25T20:56:04;100803.47;;;0.86;100.00
41515;BME280;27247;48.020;16.720;2023-01-25T21:00:15;100794.03;;;0.68;100.00
41515;BME280;27247;48.020;16.720;2023-01-25T21:04:27;100785.66;;;0.91;100.00
41515;BME280;27247;48.020;16.720;2023-01-25T21:08:38;100782.06;;;0.92;100.00
41515;BME280;27247;48.020;16.720;2023-01-25T21:12:49;100781.91;;;0.95;100.00
41515;BME280;27247;48.020;16.720;2023-01-25T21:17:00;100787.16;;;0.95;100.00
41515;BME280;27247;48.020;16.720;2023-01-25T21:21:12;100781.84;;;1.11;100.00
41515;BME280;27247;48.020;16.720;2023-01-25T21:25:23;100776.69;;;1.09;100.00
41515;BME280;27247;48.020;16.720;2023-01-25T21:29:34;100774.06;;;1.09;100.00
41515;BME280;27247;48.020;16.720;2023-01-25T21:33:45;100773.50;;;1.18;100.00
41515;BME280;27247;48.020;16.720;2023-01-25T21:37:56;100779.97;;;1.13;100.00
41515;BME280;27247;48.020;16.720;2023-01-25T21:42:07;100784.41;;;1.12;100.00
41515;BME280;27247;48.020;16.720;2023-01-25T21:46:21;100776.25;;;1.01;100.00
41515;BME280;27247;48.020;16.720;2023-01-25T21:50:38;100781.03;;;0.94;100.00
41515;BME280;27247;48.020;16.720;2023-01-25T21:55:08;100773.25;;;0.93;100.00
41515;BME280;27247;48.020;16.720;2023-01-25T21:59:19;100766.66;;;0.86;100.00
41515;BME280;27247;48.020;16.720;2023-01-25T22:03:29;100755.28;;;0.85;100.00
41515;BME280;27247;48.020;16.720;2023-01-25T22:07:40;100753.97;;;0.78;100.00
41515;BME280;27247;48.020;16.720;2023-01-25T22:11:52;100750.00;;;0.71;100.00
41515;BME280;27247;48.020;16.720;2023-01-25T22:16:04;100749.16;;;0.71;100.00
41515;BME280;27247;48.020;16.720;2023-01-25T22:20:15;100744.66;;;0.73;100.00
41515;BME280;27247;48.020;16.720;2023-01-25T22:24:25;100757.63;;;0.76;100.00
41515;BME280;27247;48.020;16.720;2023-01-25T22:28:55;100743.72;;;0.74;100.00
41515;BME280;27247;48.020;16.720;2023-01-25T22:33:06;100734.88;;;0.75;100.00
41515;BME280;27247;48.020;16.720;2023-01-25T22:37:16;100732.06;;;0.78;100.00
41515;BME280;27247;48.020;16.720;2023-01-25T22:41:29;100725.28;;;0.74;100.00
41515;BME280;27247;48.020;16.720;2023-01-25T22:45:47;100706.88;;;0.74;100.00
41515;BME280;27247;48.020;16.720;2023-01-25T22:49:58;100711.97;;;0.77;100.00
41515;BME280;27247;48.020;16.720;2023-01-25T22:54:08;100711.03;;;0.78;100.00
41515;BME280;27247;48.020;16.720;2023-01-25T22:58:18;100705.66;;;0.79;100.00
41515;BME280;27247;48.020;16.720;2023-01-25T23:02:29;100700.50;;;0.78;100.00
41515;BME280;27247;48.020;16.720;2023-01-25T23:06:39;100696.84;;;0.80;100.00
41515;BME280;27247;48.020;16.720;2023-01-25T23:10:50;100687.81;;;0.84;100.00
41515;BME280;27247;48.020;16.720;2023-01-25T23:15:00;100679.63;;;0.75;100.00
41515;BME280;27247;48.020;16.720;2023-01-25T23:19:16;100674.47;;;0.73;100.00
41515;BME280;27247;48.020;16.720;2023-01-25T23:23:26;100673.72;;;0.71;100.00